Pontoon, Arkansas
Current Conditions -  °F | °C
As of 5:53 AM on Friday 19 Dec 2014 (Local Time) from KRUE Reporting Station
Overcast Overcast  
Wind Chill: 41°   Ceiling: 600
Heat Index: 41°   Visibility: 9mi
Dew Point: 38°   Wind: 3mph
Humidity: 89%   Direction: NA
Pressure: 30.21"   Gusts: NA
Location:  35.031°N, 93.0373°W
Report Text: KRUE 191153Z AUTO VRB03KT 9SM OVC006 05/03 A3021 RMK AO2 SLP227 T00500033 10056 20050 50002
Loading
Personal Weather Stations






























Interactive Weather Map New forecast layout! Learn more

10-Day Weather Forecast

Advertisements
Track Severe Weather on mobile